This is the latest recevied weather packets stored in our database for station/object OK2ILA-1. If no packets are shown the sender has not sent any weather packets the latest 10 day(s).
| Time | Temp. | Humidity | Pressure | Rain* | Wind** | Luminosity | Snow |
|---|---|---|---|---|---|---|---|
| 1778049600 | 18.33° C | 100% | 1008.4 hPa | 0 mm | - | - | - |
| 1778048879 | 18.33° C | 100% | 1008.3 hPa | 0 mm | - | - | - |
| 1778048158 | 17.78° C | 100% | 1008.3 hPa | 0 mm | - | - | - |
| 1778047438 | 17.22° C | 100% | 1008.3 hPa | 0 mm | - | - | - |
| 1778046717 | 16.11° C | 100% | 1008.2 hPa | 0 mm | - | - | - |
| 1778045996 | 15.56° C | 100% | 1008.1 hPa | 0 mm | - | - | - |
| 1778045276 | 15.56° C | 100% | 1008 hPa | 0 mm | - | - | - |
| 1778044555 | 15° C | 100% | 1007.8 hPa | 0 mm | - | - | - |
| 1778034466 | 13.89° C | 100% | 1007.1 hPa | 0 mm | - | - | - |
| 1778033745 | 14.44° C | 100% | 1007.2 hPa | 0 mm | - | - | - |
| 1778033024 | 14.44° C | 100% | 1007.3 hPa | 0 mm | - | - | - |
| 1778032304 | 14.44° C | 100% | 1007.3 hPa | 0 mm | - | - | - |
| 1778031583 | 14.44° C | 100% | 1007.3 hPa | 0 mm | - | - | - |
| 1778030862 | 15° C | 100% | 1007.4 hPa | 0 mm | - | - | - |
| 1778030141 | 15° C | 100% | 1007.3 hPa | 0 mm | - | - | - |
| 1778029421 | 15° C | 100% | 1007.3 hPa | 0 mm | - | - | - |
| 1778028700 | 15° C | 100% | 1007.3 hPa | 0 mm | - | - | - |
| 1778027979 | 15° C | 100% | 1007.1 hPa | 0 mm | - | - | - |
| 1778027259 | 15° C | 100% | 1007 hPa | 0 mm | - | - | - |
| 1778026538 | 15.56° C | 100% | 1007.2 hPa | 0 mm | - | - | - |
| 1778025817 | 15.56° C | 100% | 1007.1 hPa | 0 mm | - | - | - |
| 1778025097 | 15.56° C | 100% | 1007.3 hPa | 0 mm | - | - | - |
| 1778024376 | 16.11° C | 100% | 1007.5 hPa | 0 mm | - | - | - |
| 1778023655 | 16.11° C | 100% | 1007.5 hPa | 0 mm | - | - | - |
| 1778022935 | 16.11° C | 100% | 1007.6 hPa | 0 mm | - | - | - |
* Rain latest hour (hover to see other rain measurements)
** Current wind speed in m/s (hover to see current wind gust speed)